sensor_id;sensor_type;location;lat;lon;timestamp;pressure;altitude;pressure_sealevel;temperature;humidity
84055;BME280;74141;51.504;7.122;2024-01-15T00:00:01;99779.19;;;0.90;100.00
84055;BME280;74141;51.504;7.122;2024-01-15T00:02:26;99771.34;;;0.92;100.00
84055;BME280;74141;51.504;7.122;2024-01-15T00:04:51;99772.22;;;0.92;100.00
84055;BME280;74141;51.504;7.122;2024-01-15T00:07:16;99769.53;;;0.97;100.00
84055;BME280;74141;51.504;7.122;2024-01-15T00:09:42;99773.88;;;0.95;100.00
84055;BME280;74141;51.504;7.122;2024-01-15T00:12:07;99757.53;;;0.93;100.00
84055;BME280;74141;51.504;7.122;2024-01-15T00:14:32;99766.97;;;0.95;100.00
84055;BME280;74141;51.504;7.122;2024-01-15T00:16:58;99756.59;;;0.95;100.00
84055;BME280;74141;51.504;7.122;2024-01-15T00:19:23;99751.31;;;1.01;100.00
84055;BME280;74141;51.504;7.122;2024-01-15T00:21:49;99747.88;;;0.99;100.00
84055;BME280;74141;51.504;7.122;2024-01-15T00:24:14;99740.91;;;1.03;100.00
84055;BME280;74141;51.504;7.122;2024-01-15T00:26:40;99734.00;;;1.03;100.00
84055;BME280;74141;51.504;7.122;2024-01-15T00:29:07;99738.31;;;1.04;100.00
84055;BME280;74141;51.504;7.122;2024-01-15T00:31:32;99736.56;;;1.06;100.00
84055;BME280;74141;51.504;7.122;2024-01-15T00:33:58;99735.66;;;1.07;100.00
84055;BME280;74141;51.504;7.122;2024-01-15T00:36:23;99729.56;;;1.08;100.00
84055;BME280;74141;51.504;7.122;2024-01-15T00:38:48;99729.56;;;1.08;100.00
84055;BME280;74141;51.504;7.122;2024-01-15T00:41:14;99736.47;;;1.11;100.00
84055;BME280;74141;51.504;7.122;2024-01-15T00:43:39;99733.84;;;1.12;99.96
84055;BME280;74141;51.504;7.122;2024-01-15T00:46:05;99730.38;;;1.13;100.00
84055;BME280;74141;51.504;7.122;2024-01-15T00:48:30;99730.38;;;1.13;99.98
84055;BME280;74141;51.504;7.122;2024-01-15T00:50:56;99736.41;;;1.14;99.96
84055;BME280;74141;51.504;7.122;2024-01-15T00:53:21;99735.56;;;1.13;100.00
84055;BME280;74141;51.504;7.122;2024-01-15T00:55:47;99726.09;;;1.11;100.00
84055;BME280;74141;51.504;7.122;2024-01-15T00:58:13;99725.22;;;1.10;100.00
84055;BME280;74141;51.504;7.122;2024-01-15T01:00:38;99730.41;;;1.10;100.00
84055;BME280;74141;51.504;7.122;2024-01-15T01:03:03;99722.63;;;1.12;100.00
84055;BME280;74141;51.504;7.122;2024-01-15T01:05:29;99726.88;;;1.14;100.00
84055;BME280;74141;51.504;7.122;2024-01-15T01:07:54;99721.66;;;1.16;100.00
84055;BME280;74141;51.504;7.122;2024-01-15T01:10:19;99726.81;;;1.17;100.00
84055;BME280;74141;51.504;7.122;2024-01-15T01:12:44;99717.34;;;1.16;100.00
84055;BME280;74141;51.504;7.122;2024-01-15T01:15:10;99725.13;;;1.16;100.00
84055;BME280;74141;51.504;7.122;2024-01-15T01:17:35;99717.34;;;1.16;99.89
84055;BME280;74141;51.504;7.122;2024-01-15T01:20:01;99713.84;;;1.17;100.00
84055;BME280;74141;51.504;7.122;2024-01-15T01:22:29;99706.13;;;1.14;100.00
84055;BME280;74141;51.504;7.122;2024-01-15T01:24:54;99720.84;;;1.14;100.00
84055;BME280;74141;51.504;7.122;2024-01-15T01:27:20;99705.31;;;1.12;100.00
84055;BME280;74141;51.504;7.122;2024-01-15T01:29:45;99707.91;;;1.12;99.87
84055;BME280;74141;51.504;7.122;2024-01-15T01:32:10;99703.53;;;1.14;100.00
84055;BME280;74141;51.504;7.122;2024-01-15T01:34:40;99706.19;;;1.11;100.00
84055;BME280;74141;51.504;7.122;2024-01-15T01:37:11;99705.31;;;1.14;100.00
84055;BME280;74141;51.504;7.122;2024-01-15T01:39:43;99707.88;;;1.15;99.50
84055;BME280;74141;51.504;7.122;2024-01-15T01:42:09;99704.44;;;1.13;99.85
84055;BME280;74141;51.504;7.122;2024-01-15T01:44:34;99706.13;;;1.14;99.74
84055;BME280;74141;51.504;7.122;2024-01-15T01:47:00;99700.09;;;1.15;100.00
84055;BME280;74141;51.504;7.122;2024-01-15T01:49:26;99707.00;;;1.15;99.92
84055;BME280;74141;51.504;7.122;2024-01-15T01:51:52;99709.53;;;1.18;99.82
84055;BME280;74141;51.504;7.122;2024-01-15T01:54:19;99708.69;;;1.16;99.42
84055;BME280;74141;51.504;7.122;2024-01-15T01:56:45;99708.63;;;1.20;99.74
84055;BME280;74141;51.504;7.122;2024-01-15T01:59:12;99715.63;;;1.17;99.77
84055;BME280;74141;51.504;7.122;2024-01-15T02:01:38;99717.31;;;1.18;99.74
84055;BME280;74141;51.504;7.122;2024-01-15T02:04:12;99723.44;;;1.15;99.32
84055;BME280;74141;51.504;7.122;2024-01-15T02:06:37;99720.84;;;1.15;99.67
84055;BME280;74141;51.504;7.122;2024-01-15T02:09:12;99715.59;;;1.18;99.65
84055;BME280;74141;51.504;7.122;2024-01-15T02:11:40;99719.88;;;1.19;99.75
84055;BME280;74141;51.504;7.122;2024-01-15T02:14:12;99722.44;;;1.22;99.03
84055;BME280;74141;51.504;7.122;2024-01-15T02:16:38;99719.84;;;1.22;99.18
84055;BME280;74141;51.504;7.122;2024-01-15T02:19:16;99715.44;;;1.24;99.26
84055;BME280;74141;51.504;7.122;2024-01-15T02:21:42;99712.09;;;1.19;99.10
84055;BME280;74141;51.504;7.122;2024-01-15T02:24:13;99719.09;;;1.14;99.42
84055;BME280;74141;51.504;7.122;2024-01-15T02:26:38;99713.97;;;1.11;99.84
84055;BME280;74141;51.504;7.122;2024-01-15T02:29:13;99711.44;;;1.08;99.85
84055;BME280;74141;51.504;7.122;2024-01-15T02:31:39;99721.00;;;1.06;99.90
84055;BME280;74141;51.504;7.122;2024-01-15T02:34:11;99709.84;;;1.01;99.65
84055;BME280;74141;51.504;7.122;2024-01-15T02:36:36;99714.19;;;0.99;99.76
84055;BME280;74141;51.504;7.122;2024-01-15T02:39:01;99714.19;;;0.98;99.63
84055;BME280;74141;51.504;7.122;2024-01-15T02:41:26;99714.25;;;0.95;99.18
84055;BME280;74141;51.504;7.122;2024-01-15T02:43:52;99708.19;;;0.97;100.00
84055;BME280;74141;51.504;7.122;2024-01-15T02:46:17;99715.88;;;1.02;100.00
84055;BME280;74141;51.504;7.122;2024-01-15T02:48:42;99714.97;;;1.04;99.85
84055;BME280;74141;51.504;7.122;2024-01-15T02:51:14;99709.84;;;1.01;99.71
84055;BME280;74141;51.504;7.122;2024-01-15T02:53:39;99703.81;;;0.99;99.59
84055;BME280;74141;51.504;7.122;2024-01-15T02:56:14;99690.88;;;0.98;99.70
84055;BME280;74141;51.504;7.122;2024-01-15T02:58:39;99701.31;;;0.93;99.58
84055;BME280;74141;51.504;7.122;2024-01-15T03:01:04;99708.19;;;0.97;99.76
84055;BME280;74141;51.504;7.122;2024-01-15T03:03:29;99700.31;;;1.02;99.59
84055;BME280;74141;51.504;7.122;2024-01-15T03:05:55;99702.00;;;1.04;99.38
84055;BME280;74141;51.504;7.122;2024-01-15T03:08:20;99702.78;;;1.09;99.24
84055;BME280;74141;51.504;7.122;2024-01-15T03:10:47;99702.88;;;1.05;99.26
84055;BME280;74141;51.504;7.122;2024-01-15T03:13:12;99698.50;;;1.05;99.33
84055;BME280;74141;51.504;7.122;2024-01-15T03:15:38;99707.22;;;1.03;99.99
84055;BME280;74141;51.504;7.122;2024-01-15T03:18:03;99700.25;;;1.06;99.25
84055;BME280;74141;51.504;7.122;2024-01-15T03:20:28;99692.53;;;1.03;99.58
84055;BME280;74141;51.504;7.122;2024-01-15T03:22:54;99692.50;;;1.05;99.54
84055;BME280;74141;51.504;7.122;2024-01-15T03:25:19;99702.88;;;1.03;99.54
84055;BME280;74141;51.504;7.122;2024-01-15T03:27:44;99702.88;;;1.03;99.23
84055;BME280;74141;51.504;7.122;2024-01-15T03:30:10;99708.91;;;1.04;99.82
84055;BME280;74141;51.504;7.122;2024-01-15T03:32:35;99713.16;;;1.09;99.44
84055;BME280;74141;51.504;7.122;2024-01-15T03:35:01;99714.03;;;1.08;99.45
84055;BME280;74141;51.504;7.122;2024-01-15T03:37:26;99709.66;;;1.10;99.49
84055;BME280;74141;51.504;7.122;2024-01-15T03:39:51;99708.72;;;1.14;99.09
84055;BME280;74141;51.504;7.122;2024-01-15T03:42:17;99714.75;;;1.16;99.25
84055;BME280;74141;51.504;7.122;2024-01-15T03:44:42;99710.31;;;1.21;98.81
84055;BME280;74141;51.504;7.122;2024-01-15T03:47:07;99711.22;;;1.20;98.97
84055;BME280;74141;51.504;7.122;2024-01-15T03:49:33;99707.66;;;1.24;98.84
84055;BME280;74141;51.504;7.122;2024-01-15T03:51:58;99713.81;;;1.20;98.69
84055;BME280;74141;51.504;7.122;2024-01-15T03:54:23;99703.28;;;1.28;98.50
84055;BME280;74141;51.504;7.122;2024-01-15T03:56:48;99710.22;;;1.27;98.44
84055;BME280;74141;51.504;7.122;2024-01-15T03:59:14;99700.66;;;1.29;98.44
84055;BME280;74141;51.504;7.122;2024-01-15T04:01:39;99698.97;;;1.28;98.00
84055;BME280;74141;51.504;7.122;2024-01-15T04:04:04;99703.31;;;1.26;98.53
84055;BME280;74141;51.504;7.122;2024-01-15T04:06:29;99705.81;;;1.32;98.17
84055;BME280;74141;51.504;7.122;2024-01-15T04:08:54;99690.28;;;1.29;98.00
84055;BME280;74141;51.504;7.122;2024-01-15T04:11:20;99703.25;;;1.31;98.23
84055;BME280;74141;51.504;7.122;2024-01-15T04:13:45;99685.09;;;1.29;98.25
84055;BME280;74141;51.504;7.122;2024-01-15T04:16:10;99680.72;;;1.33;97.71
84055;BME280;74141;51.504;7.122;2024-01-15T04:18:36;99672.94;;;1.33;97.83
84055;BME280;74141;51.504;7.122;2024-01-15T04:21:04;99679.84;;;1.32;97.74
84055;BME280;74141;51.504;7.122;2024-01-15T04:23:30;99672.06;;;1.32;98.11
84055;BME280;74141;51.504;7.122;2024-01-15T04:25:55;99669.47;;;1.32;98.31
84055;BME280;74141;51.504;7.122;2024-01-15T04:28:20;99670.44;;;1.28;97.95
84055;BME280;74141;51.504;7.122;2024-01-15T04:30:46;99661.84;;;1.25;98.14
84055;BME280;74141;51.504;7.122;2024-01-15T04:33:11;99667.06;;;1.23;98.88
84055;BME280;74141;51.504;7.122;2024-01-15T04:35:37;99660.06;;;1.28;98.85
84055;BME280;74141;51.504;7.122;2024-01-15T04:38:02;99659.16;;;1.29;98.85
84055;BME280;74141;51.504;7.122;2024-01-15T04:40:27;99655.69;;;1.30;98.64
84055;BME280;74141;51.504;7.122;2024-01-15T04:42:54;99648.78;;;1.29;98.74
84055;BME280;74141;51.504;7.122;2024-01-15T04:45:19;99646.25;;;1.26;98.61
84055;BME280;74141;51.504;7.122;2024-01-15T04:47:44;99640.16;;;1.27;98.63
84055;BME280;74141;51.504;7.122;2024-01-15T04:50:10;99655.72;;;1.27;98.55
84055;BME280;74141;51.504;7.122;2024-01-15T04:52:35;99650.50;;;1.30;98.68
84055;BME280;74141;51.504;7.122;2024-01-15T04:55:00;99648.78;;;1.29;98.48
84055;BME280;74141;51.504;7.122;2024-01-15T04:57:25;99646.97;;;1.34;98.04
84055;BME280;74141;51.504;7.122;2024-01-15T04:59:51;99640.91;;;1.34;98.55
84055;BME280;74141;51.504;7.122;2024-01-15T05:02:16;99638.34;;;1.32;97.82
84055;BME280;74141;51.504;7.122;2024-01-15T05:04:41;99640.13;;;1.29;98.33
84055;BME280;74141;51.504;7.122;2024-01-15T05:07:06;99640.03;;;1.35;98.02
84055;BME280;74141;51.504;7.122;2024-01-15T05:09:32;99641.84;;;1.31;98.51
84055;BME280;74141;51.504;7.122;2024-01-15T05:11:57;99629.66;;;1.33;98.06
84055;BME280;74141;51.504;7.122;2024-01-15T05:14:22;99634.03;;;1.33;98.32
84055;BME280;74141;51.504;7.122;2024-01-15T05:16:48;99639.16;;;1.36;98.20
84055;BME280;74141;51.504;7.122;2024-01-15T05:19:14;99628.72;;;1.39;97.47
84055;BME280;74141;51.504;7.122;2024-01-15T05:21:39;99623.50;;;1.40;97.80
84055;BME280;74141;51.504;7.122;2024-01-15T05:24:05;99617.50;;;1.37;97.70
84055;BME280;74141;51.504;7.122;2024-01-15T05:26:30;99615.78;;;1.37;97.37
84055;BME280;74141;51.504;7.122;2024-01-15T05:28:55;99619.22;;;1.36;97.53
84055;BME280;74141;51.504;7.122;2024-01-15T05:31:20;99616.72;;;1.32;97.67
84055;BME280;74141;51.504;7.122;2024-01-15T05:33:46;99619.28;;;1.33;98.01
84055;BME280;74141;51.504;7.122;2024-01-15T05:36:11;99617.59;;;1.32;97.67
84055;BME280;74141;51.504;7.122;2024-01-15T05:38:36;99622.78;;;1.32;97.88
84055;BME280;74141;51.504;7.122;2024-01-15T05:41:02;99622.72;;;1.35;98.01
84055;BME280;74141;51.504;7.122;2024-01-15T05:43:27;99616.63;;;1.36;97.68
84055;BME280;74141;51.504;7.122;2024-01-15T05:45:52;99619.22;;;1.36;97.73
84055;BME280;74141;51.504;7.122;2024-01-15T05:48:17;99611.47;;;1.35;97.34
84055;BME280;74141;51.504;7.122;2024-01-15T05:50:43;99612.28;;;1.38;97.64
84055;BME280;74141;51.504;7.122;2024-01-15T05:53:09;99614.97;;;1.34;96.83
84055;BME280;74141;51.504;7.122;2024-01-15T05:55:35;99621.78;;;1.39;96.61
84055;BME280;74141;51.504;7.122;2024-01-15T05:58:01;99614.09;;;1.33;96.82
84055;BME280;74141;51.504;7.122;2024-01-15T06:00:26;99622.72;;;1.35;97.41
84055;BME280;74141;51.504;7.122;2024-01-15T06:02:51;99612.28;;;1.38;97.10
84055;BME280;74141;51.504;7.122;2024-01-15T06:05:17;99612.31;;;1.37;97.32
84055;BME280;74141;51.504;7.122;2024-01-15T06:07:42;99608.03;;;1.36;97.39
84055;BME280;74141;51.504;7.122;2024-01-15T06:10:07;99617.47;;;1.38;97.09
84055;BME280;74141;51.504;7.122;2024-01-15T06:12:33;99613.97;;;1.39;97.40
84055;BME280;74141;51.504;7.122;2024-01-15T06:14:58;99607.16;;;1.35;97.09
84055;BME280;74141;51.504;7.122;2024-01-15T06:17:24;99613.16;;;1.39;97.11
84055;BME280;74141;51.504;7.122;2024-01-15T06:19:49;99595.78;;;1.41;97.11
84055;BME280;74141;51.504;7.122;2024-01-15T06:22:14;99600.09;;;1.43;96.89
84055;BME280;74141;51.504;7.122;2024-01-15T06:24:40;99601.78;;;1.44;97.57
84055;BME280;74141;51.504;7.122;2024-01-15T06:27:05;99590.56;;;1.42;97.15
84055;BME280;74141;51.504;7.122;2024-01-15T06:29:30;99593.09;;;1.45;97.15
84055;BME280;74141;51.504;7.122;2024-01-15T06:31:55;99593.09;;;1.45;97.09
84055;BME280;74141;51.504;7.122;2024-01-15T06:34:21;99593.97;;;1.46;97.26
84055;BME280;74141;51.504;7.122;2024-01-15T06:36:46;99594.81;;;1.48;97.22
84055;BME280;74141;51.504;7.122;2024-01-15T06:39:11;99585.25;;;1.48;96.99
84055;BME280;74141;51.504;7.122;2024-01-15T06:41:37;99593.06;;;1.47;96.87
84055;BME280;74141;51.504;7.122;2024-01-15T06:44:09;99593.09;;;1.45;97.09
84055;BME280;74141;51.504;7.122;2024-01-15T06:46:35;99587.00;;;1.49;97.13
84055;BME280;74141;51.504;7.122;2024-01-15T06:49:01;99579.25;;;1.46;97.00
84055;BME280;74141;51.504;7.122;2024-01-15T06:51:26;99591.34;;;1.47;97.07
84055;BME280;74141;51.504;7.122;2024-01-15T06:53:51;99596.66;;;1.41;97.68
84055;BME280;74141;51.504;7.122;2024-01-15T06:56:16;99600.09;;;1.43;97.95
84055;BME280;74141;51.504;7.122;2024-01-15T06:58:42;99594.06;;;1.41;97.66
84055;BME280;74141;51.504;7.122;2024-01-15T07:01:07;99594.91;;;1.43;97.91
84055;BME280;74141;51.504;7.122;2024-01-15T07:03:33;99603.44;;;1.47;98.07
84055;BME280;74141;51.504;7.122;2024-01-15T07:05:58;99602.53;;;1.51;97.70
84055;BME280;74141;51.504;7.122;2024-01-15T07:08:23;99600.78;;;1.50;97.41
84055;BME280;74141;51.504;7.122;2024-01-15T07:10:48;99602.56;;;1.49;97.42
84055;BME280;74141;51.504;7.122;2024-01-15T07:13:14;99606.81;;;1.52;97.73
84055;BME280;74141;51.504;7.122;2024-01-15T07:15:39;99602.47;;;1.52;97.63
84055;BME280;74141;51.504;7.122;2024-01-15T07:18:05;99601.59;;;1.53;97.76
84055;BME280;74141;51.504;7.122;2024-01-15T07:20:30;99605.84;;;1.56;97.12
84055;BME280;74141;51.504;7.122;2024-01-15T07:22:55;99587.66;;;1.57;97.41
84055;BME280;74141;51.504;7.122;2024-01-15T07:25:21;99602.25;;;1.61;96.47
84055;BME280;74141;51.504;7.122;2024-01-15T07:27:47;99609.28;;;1.58;96.48
84055;BME280;74141;51.504;7.122;2024-01-15T07:30:12;99600.59;;;1.59;96.92
84055;BME280;74141;51.504;7.122;2024-01-15T07:32:38;99595.38;;;1.60;96.50
84055;BME280;74141;51.504;7.122;2024-01-15T07:35:04;99584.09;;;1.61;96.47
84055;BME280;74141;51.504;7.122;2024-01-15T07:37:29;99601.47;;;1.59;96.37
84055;BME280;74141;51.504;7.122;2024-01-15T07:39:54;99602.34;;;1.58;96.78
84055;BME280;74141;51.504;7.122;2024-01-15T07:42:20;99593.72;;;1.58;96.80
84055;BME280;74141;51.504;7.122;2024-01-15T07:44:45;99588.53;;;1.58;96.49
84055;BME280;74141;51.504;7.122;2024-01-15T07:47:10;99598.00;;;1.59;96.55
84055;BME280;74141;51.504;7.122;2024-01-15T07:49:36;99591.06;;;1.61;96.36
84055;BME280;74141;51.504;7.122;2024-01-15T07:52:01;99604.06;;;1.59;96.87
84055;BME280;74141;51.504;7.122;2024-01-15T07:54:26;99600.53;;;1.62;96.57
84055;BME280;74141;51.504;7.122;2024-01-15T07:59:20;99599.66;;;1.61;96.42
84055;BME280;74141;51.504;7.122;2024-01-15T08:01:45;99600.59;;;1.59;96.62
84055;BME280;74141;51.504;7.122;2024-01-15T08:04:12;99600.66;;;1.56;96.97
84055;BME280;74141;51.504;7.122;2024-01-15T08:06:38;99603.41;;;1.48;97.44
84055;BME280;74141;51.504;7.122;2024-01-15T08:09:03;99597.50;;;1.43;97.90
84055;BME280;74141;51.504;7.122;2024-01-15T08:11:29;99597.53;;;1.42;98.11
84055;BME280;74141;51.504;7.122;2024-01-15T08:13:54;99590.66;;;1.38;98.37
84055;BME280;74141;51.504;7.122;2024-01-15T08:16:20;99591.66;;;1.32;98.33
84055;BME280;74141;51.504;7.122;2024-01-15T08:18:45;99601.22;;;1.29;98.93
84055;BME280;74141;51.504;7.122;2024-01-15T08:21:10;99603.84;;;1.27;99.13
84055;BME280;74141;51.504;7.122;2024-01-15T08:23:35;99596.28;;;1.18;99.25
84055;BME280;74141;51.504;7.122;2024-01-15T08:26:01;99597.38;;;1.05;99.24
84055;BME280;74141;51.504;7.122;2024-01-15T08:28:26;99607.91;;;0.98;99.93
84055;BME280;74141;51.504;7.122;2024-01-15T08:30:51;99598.63;;;0.86;100.00
84055;BME280;74141;51.504;7.122;2024-01-15T08:33:16;99595.25;;;0.83;100.00
84055;BME280;74141;51.504;7.122;2024-01-15T08:35:42;99597.88;;;0.81;100.00
84055;BME280;74141;51.504;7.122;2024-01-15T08:38:07;99590.91;;;0.83;100.00
84055;BME280;74141;51.504;7.122;2024-01-15T08:40:32;99593.53;;;0.80;100.00
84055;BME280;74141;51.504;7.122;2024-01-15T08:42:58;99598.72;;;0.80;100.00
84055;BME280;74141;51.504;7.122;2024-01-15T08:45:23;99597.81;;;0.84;100.00
84055;BME280;74141;51.504;7.122;2024-01-15T08:47:48;99602.16;;;0.82;100.00
84055;BME280;74141;51.504;7.122;2024-01-15T08:50:14;99600.47;;;0.81;100.00
84055;BME280;74141;51.504;7.122;2024-01-15T08:52:39;99595.31;;;0.80;100.00
84055;BME280;74141;51.504;7.122;2024-01-15T08:55:05;99606.63;;;0.74;100.00
84055;BME280;74141;51.504;7.122;2024-01-15T08:57:32;99604.88;;;0.75;100.00
84055;BME280;74141;51.504;7.122;2024-01-15T08:59:57;99610.09;;;0.73;100.00
84055;BME280;74141;51.504;7.122;2024-01-15T09:02:24;99613.56;;;0.74;100.00
84055;BME280;74141;51.504;7.122;2024-01-15T09:04:49;99603.22;;;0.72;100.00
84055;BME280;74141;51.504;7.122;2024-01-15T09:07:15;99612.66;;;0.75;100.00
84055;BME280;74141;51.504;7.122;2024-01-15T09:09:40;99614.34;;;0.77;100.00
84055;BME280;74141;51.504;7.122;2024-01-15T09:12:07;99624.66;;;0.80;100.00
84055;BME280;74141;51.504;7.122;2024-01-15T09:14:32;99616.88;;;0.80;100.00
84055;BME280;74141;51.504;7.122;2024-01-15T09:16:59;99622.91;;;0.82;100.00
84055;BME280;74141;51.504;7.122;2024-01-15T09:19:24;99616.78;;;0.85;100.00
84055;BME280;74141;51.504;7.122;2024-01-15T09:21:49;99617.66;;;0.85;100.00
84055;BME280;74141;51.504;7.122;2024-01-15T09:24:15;99624.50;;;0.88;100.00
84055;BME280;74141;51.504;7.122;2024-01-15T09:26:40;99626.31;;;0.84;100.00
84055;BME280;74141;51.504;7.122;2024-01-15T09:29:05;99625.59;;;0.76;100.00
84055;BME280;74141;51.504;7.122;2024-01-15T09:31:31;99622.22;;;0.71;100.00
84055;BME280;74141;51.504;7.122;2024-01-15T09:33:56;99629.25;;;0.66;100.00
84055;BME280;74141;51.504;7.122;2024-01-15T09:36:22;99637.13;;;0.59;100.00
84055;BME280;74141;51.504;7.122;2024-01-15T09:38:48;99633.69;;;0.57;100.00
84055;BME280;74141;51.504;7.122;2024-01-15T09:41:14;99636.34;;;0.54;100.00
84055;BME280;74141;51.504;7.122;2024-01-15T09:43:40;99633.72;;;0.55;100.00
84055;BME280;74141;51.504;7.122;2024-01-15T09:46:05;99623.38;;;0.54;100.00
84055;BME280;74141;51.504;7.122;2024-01-15T09:48:31;99640.66;;;0.55;100.00
84055;BME280;74141;51.504;7.122;2024-01-15T09:51:01;99636.28;;;0.58;100.00
84055;BME280;74141;51.504;7.122;2024-01-15T09:53:26;99634.53;;;0.60;100.00
84055;BME280;74141;51.504;7.122;2024-01-15T09:55:53;99644.91;;;0.59;100.00
84055;BME280;74141;51.504;7.122;2024-01-15T09:58:18;99632.81;;;0.59;100.00
84055;BME280;74141;51.504;7.122;2024-01-15T10:00:44;99633.69;;;0.58;100.00
84055;BME280;74141;51.504;7.122;2024-01-15T10:03:10;99638.06;;;0.56;100.00
84055;BME280;74141;51.504;7.122;2024-01-15T10:05:37;99638.84;;;0.58;100.00
84055;BME280;74141;51.504;7.122;2024-01-15T10:08:02;99643.91;;;0.66;100.00
84055;BME280;74141;51.504;7.122;2024-01-15T10:10:29;99638.69;;;0.69;100.00
84055;BME280;74141;51.504;7.122;2024-01-15T10:12:55;99637.66;;;0.77;100.00
84055;BME280;74141;51.504;7.122;2024-01-15T10:15:23;99630.59;;;0.87;100.00
84055;BME280;74141;51.504;7.122;2024-01-15T10:17:49;99624.47;;;0.89;100.00
84055;BME280;74141;51.504;7.122;2024-01-15T10:20:14;99613.38;;;0.84;100.00
84055;BME280;74141;51.504;7.122;2024-01-15T10:22:42;99616.81;;;0.83;100.00
84055;BME280;74141;51.504;7.122;2024-01-15T10:25:12;99617.69;;;0.84;100.00
84055;BME280;74141;51.504;7.122;2024-01-15T10:27:39;99618.53;;;0.86;100.00
84055;BME280;74141;51.504;7.122;2024-01-15T10:30:05;99627.03;;;0.92;100.00
84055;BME280;74141;51.504;7.122;2024-01-15T10:32:31;99622.66;;;0.96;100.00
84055;BME280;74141;51.504;7.122;2024-01-15T10:34:56;99624.28;;;1.00;100.00
84055;BME280;74141;51.504;7.122;2024-01-15T10:37:24;99611.31;;;1.00;100.00
84055;BME280;74141;51.504;7.122;2024-01-15T10:39:49;99614.78;;;1.00;100.00
84055;BME280;74141;51.504;7.122;2024-01-15T10:42:14;99617.22;;;1.08;100.00
84055;BME280;74141;51.504;7.122;2024-01-15T10:44:41;99623.13;;;1.14;100.00
84055;BME280;74141;51.504;7.122;2024-01-15T10:47:08;99621.31;;;1.19;100.00
84055;BME280;74141;51.504;7.122;2024-01-15T10:49:33;99618.66;;;1.22;99.84
84055;BME280;74141;51.504;7.122;2024-01-15T10:52:00;99625.56;;;1.23;99.62
84055;BME280;74141;51.504;7.122;2024-01-15T10:54:27;99626.41;;;1.25;99.65
84055;BME280;74141;51.504;7.122;2024-01-15T10:56:52;99622.91;;;1.26;99.57
84055;BME280;74141;51.504;7.122;2024-01-15T10:59:20;99617.78;;;1.23;99.06
84055;BME280;74141;51.504;7.122;2024-01-15T11:01:47;99625.53;;;1.25;99.72
84055;BME280;74141;51.504;7.122;2024-01-15T11:04:13;99623.75;;;1.28;99.54
84055;BME280;74141;51.504;7.122;2024-01-15T11:06:44;99617.66;;;1.29;99.30
84055;BME280;74141;51.504;7.122;2024-01-15T11:09:10;99626.28;;;1.31;99.03
84055;BME280;74141;51.504;7.122;2024-01-15T11:11:40;99621.03;;;1.34;98.65
84055;BME280;74141;51.504;7.122;2024-01-15T11:14:05;99620.06;;;1.38;98.89
84055;BME280;74141;51.504;7.122;2024-01-15T11:16:56;99614.59;;;1.52;98.98
84055;BME280;74141;51.504;7.122;2024-01-15T11:19:24;99619.38;;;1.71;98.10
84055;BME280;74141;51.504;7.122;2024-01-15T11:21:49;99625.94;;;1.87;97.44
84055;BME280;74141;51.504;7.122;2024-01-15T11:24:40;99620.78;;;1.86;97.58
84055;BME280;74141;51.504;7.122;2024-01-15T11:27:06;99620.81;;;1.84;97.64
84055;BME280;74141;51.504;7.122;2024-01-15T11:29:36;99608.72;;;1.82;96.83
84055;BME280;74141;51.504;7.122;2024-01-15T11:32:03;99625.16;;;1.82;97.51
84055;BME280;74141;51.504;7.122;2024-01-15T11:37:17;99606.97;;;1.84;97.07
84055;BME280;74141;51.504;7.122;2024-01-15T11:39:43;99613.72;;;1.91;97.88
84055;BME280;74141;51.504;7.122;2024-01-15T11:42:10;99616.16;;;1.98;97.13
84055;BME280;74141;51.504;7.122;2024-01-15T11:44:40;99617.84;;;2.01;96.56
84055;BME280;74141;51.504;7.122;2024-01-15T11:47:06;99613.41;;;2.04;97.25
84055;BME280;74141;51.504;7.122;2024-01-15T11:52:22;99624.75;;;2.02;96.82
84055;BME280;74141;51.504;7.122;2024-01-15T11:55:19;99615.34;;;1.96;96.90
84055;BME280;74141;51.504;7.122;2024-01-15T11:57:54;99614.44;;;1.97;96.81
84055;BME280;74141;51.504;7.122;2024-01-15T12:00:20;99613.72;;;1.91;97.48
84055;BME280;74141;51.504;7.122;2024-01-15T12:02:47;99607.63;;;1.93;97.73
84055;BME280;74141;51.504;7.122;2024-01-15T12:05:14;99612.84;;;1.92;97.42
84055;BME280;74141;51.504;7.122;2024-01-15T12:07:40;99605.03;;;1.93;96.59
84055;BME280;74141;51.504;7.122;2024-01-15T12:10:13;99602.44;;;1.93;95.91
84055;BME280;74141;51.504;7.122;2024-01-15T12:12:57;99597.25;;;1.93;96.93
84055;BME280;74141;51.504;7.122;2024-01-15T12:15:24;99604.75;;;2.05;96.66
84055;BME280;74141;51.504;7.122;2024-01-15T12:17:50;99597.63;;;2.13;95.90
84055;BME280;74141;51.504;7.122;2024-01-15T12:20:15;99603.75;;;2.11;96.21
84055;BME280;74141;51.504;7.122;2024-01-15T12:22:41;99610.09;;;1.99;96.19
84055;BME280;74141;51.504;7.122;2024-01-15T12:25:07;99608.22;;;2.04;95.95
84055;BME280;74141;51.504;7.122;2024-01-15T12:27:32;99614.19;;;2.09;96.56
84055;BME280;74141;51.504;7.122;2024-01-15T12:29:58;99614.09;;;2.13;96.49
84055;BME280;74141;51.504;7.122;2024-01-15T12:32:24;99613.31;;;2.09;95.41
84055;BME280;74141;51.504;7.122;2024-01-15T12:34:50;99610.75;;;2.07;95.60
84055;BME280;74141;51.504;7.122;2024-01-15T12:37:18;99620.34;;;2.05;95.81
84055;BME280;74141;51.504;7.122;2024-01-15T12:39:43;99618.59;;;2.04;95.28
84055;BME280;74141;51.504;7.122;2024-01-15T12:42:09;99616.97;;;2.00;95.24
84055;BME280;74141;51.504;7.122;2024-01-15T12:44:35;99618.59;;;2.04;96.39
84055;BME280;74141;51.504;7.122;2024-01-15T12:47:03;99606.78;;;1.91;95.69
84055;BME280;74141;51.504;7.122;2024-01-15T12:49:29;99618.88;;;1.92;97.04
84055;BME280;74141;51.504;7.122;2024-01-15T12:51:57;99611.88;;;1.96;97.72
84055;BME280;74141;51.504;7.122;2024-01-15T12:54:23;99613.41;;;2.04;96.98
84055;BME280;74141;51.504;7.122;2024-01-15T12:56:49;99622.91;;;2.07;96.00
84055;BME280;74141;51.504;7.122;2024-01-15T12:59:14;99627.13;;;2.11;96.46
84055;BME280;74141;51.504;7.122;2024-01-15T13:01:39;99626.25;;;2.10;95.19
84055;BME280;74141;51.504;7.122;2024-01-15T13:04:06;99635.84;;;2.08;96.89
84055;BME280;74141;51.504;7.122;2024-01-15T13:06:34;99638.44;;;2.08;96.59
84055;BME280;74141;51.504;7.122;2024-01-15T13:08:59;99632.34;;;2.09;96.42